createdAt,value
2019-03-08T00:02:08.355Z,20.50
2019-03-08T00:04:37.343Z,20.50
2019-03-08T00:07:06.007Z,20.70
2019-03-08T00:09:34.711Z,21.00
2019-03-08T00:12:03.225Z,21.00
2019-03-08T00:14:31.877Z,21.00
2019-03-08T00:17:00.455Z,21.10
2019-03-08T00:19:29.095Z,21.20
2019-03-08T00:21:57.726Z,20.50
2019-03-08T00:24:26.360Z,19.90
2019-03-08T00:26:55.085Z,20.10
2019-03-08T00:31:51.986Z,20.40
2019-03-08T00:36:48.762Z,19.40
2019-03-08T00:39:17.334Z,19.80
2019-03-08T00:41:45.826Z,20.00
2019-03-08T00:44:14.508Z,20.60
2019-03-08T00:51:39.864Z,19.70
2019-03-08T00:54:08.433Z,19.90
2019-03-08T00:56:37.073Z,20.00
2019-03-08T00:59:06.051Z,19.60
2019-03-08T01:01:34.697Z,19.50
2019-03-08T01:04:03.264Z,20.10
2019-03-08T01:09:00.040Z,20.50
2019-03-08T01:16:26.179Z,20.60
2019-03-08T01:18:54.682Z,21.10
2019-03-08T01:21:23.213Z,22.10
2019-03-08T01:23:51.715Z,22.30
2019-03-08T01:26:20.648Z,22.80
2019-03-08T01:28:49.190Z,23.40
2019-03-08T01:31:17.762Z,23.40
2019-03-08T01:33:46.263Z,23.90
2019-03-08T01:36:14.740Z,23.90
2019-03-08T01:38:43.248Z,24.10
2019-03-08T01:41:11.810Z,24.00
2019-03-08T01:43:40.364Z,23.60
2019-03-08T01:46:08.858Z,24.30
2019-03-08T01:48:37.352Z,23.70
2019-03-08T01:51:05.956Z,23.40
2019-03-08T01:53:34.451Z,23.40
2019-03-08T01:56:03.017Z,22.60
2019-03-08T01:58:31.633Z,22.60
2019-03-08T02:01:00.194Z,22.20
2019-03-08T02:03:28.770Z,22.90
2019-03-08T02:05:57.310Z,22.40
2019-03-08T02:08:25.875Z,22.90
2019-03-08T02:10:54.377Z,22.00
2019-03-08T02:13:22.986Z,22.60
2019-03-08T02:15:51.485Z,22.60
2019-03-08T02:18:19.987Z,23.20
2019-03-08T02:20:48.662Z,23.30
2019-03-08T02:23:17.230Z,22.80
2019-03-08T02:28:14.412Z,23.50
2019-03-08T02:30:42.918Z,23.50
2019-03-08T02:33:11.498Z,23.00
2019-03-08T02:35:40.104Z,23.00
2019-03-08T02:38:08.601Z,22.80
2019-03-08T02:40:38.576Z,23.20
2019-03-08T02:43:11.968Z,23.70
2019-03-08T02:48:08.803Z,23.90
2019-03-08T02:50:38.287Z,24.10
2019-03-08T02:53:06.853Z,23.70
2019-03-08T02:55:35.548Z,23.30
2019-03-08T02:58:04.178Z,23.30
2019-03-08T03:00:37.905Z,23.20
2019-03-08T03:03:06.470Z,22.60
2019-03-08T03:05:35.113Z,22.30
2019-03-08T03:08:05.396Z,22.40
2019-03-08T03:10:34.070Z,22.90
2019-03-08T03:13:02.605Z,22.90
2019-03-08T03:15:31.174Z,23.70
2019-03-08T03:17:59.733Z,23.60
2019-03-08T03:20:28.667Z,23.60
2019-03-08T03:22:57.516Z,24.00
2019-03-08T03:27:54.396Z,24.40
2019-03-08T03:30:22.977Z,24.50
2019-03-08T03:32:51.523Z,24.30
2019-03-08T03:35:20.075Z,24.20
2019-03-08T03:37:48.999Z,24.00
2019-03-08T03:40:18.662Z,24.30
2019-03-08T03:42:47.333Z,23.70
2019-03-08T03:45:17.707Z,23.80
2019-03-08T03:47:46.276Z,23.60
2019-03-08T03:50:14.811Z,23.60
2019-03-08T03:52:43.392Z,23.50
2019-03-08T03:55:14.334Z,23.00
2019-03-08T03:57:42.874Z,22.60
2019-03-08T04:00:14.148Z,23.10
2019-03-08T04:02:42.652Z,23.00
2019-03-08T04:05:11.459Z,23.90
2019-03-08T04:07:40.028Z,23.30
2019-03-08T04:10:11.766Z,23.40
2019-03-08T04:12:40.364Z,23.50
2019-03-08T04:15:11.860Z,23.70
2019-03-08T04:17:40.431Z,23.70
2019-03-08T04:20:11.540Z,23.30
2019-03-08T04:22:40.042Z,23.20
2019-03-08T04:25:09.519Z,23.40
2019-03-08T04:27:38.062Z,23.70
2019-03-08T04:30:17.607Z,23.30
2019-03-08T04:32:46.210Z,23.70
2019-03-08T04:35:14.848Z,23.90
2019-03-08T04:40:12.868Z,23.60
2019-03-08T04:42:41.443Z,23.50
2019-03-08T04:45:14.524Z,23.60
2019-03-08T04:47:43.130Z,23.10
2019-03-08T04:50:12.703Z,22.70
2019-03-08T04:52:41.341Z,22.70
2019-03-08T04:55:12.527Z,23.10
2019-03-08T04:57:41.027Z,22.80
2019-03-08T05:00:12.365Z,22.90
2019-03-08T05:02:41.040Z,23.30
2019-03-08T05:05:09.552Z,23.10
2019-03-08T05:07:38.518Z,22.10
2019-03-08T05:10:12.662Z,22.10
2019-03-08T05:15:09.890Z,21.90
2019-03-08T05:17:38.434Z,22.40
2019-03-08T05:20:09.547Z,22.50
2019-03-08T05:22:38.166Z,22.80
2019-03-08T05:25:09.001Z,23.30
2019-03-08T05:27:37.632Z,23.20
2019-03-08T05:32:36.978Z,22.60
2019-03-08T05:37:34.539Z,22.70
2019-03-08T05:40:03.291Z,23.30
2019-03-08T05:42:31.915Z,23.60
2019-03-08T05:45:00.441Z,23.40
2019-03-08T05:47:28.940Z,22.80
2019-03-08T05:49:57.500Z,23.10
2019-03-08T05:52:26.107Z,23.20
2019-03-08T05:54:54.986Z,23.00
2019-03-08T05:57:23.557Z,22.70
2019-03-08T05:59:52.316Z,22.70
2019-03-08T06:02:20.878Z,22.80
2019-03-08T06:04:49.443Z,22.70
2019-03-08T06:07:17.981Z,22.40
2019-03-08T06:09:46.478Z,22.60
2019-03-08T06:14:43.714Z,22.40
2019-03-08T06:17:12.283Z,22.60
2019-03-08T06:22:09.152Z,22.10
2019-03-08T06:24:37.723Z,22.50
2019-03-08T06:27:06.635Z,22.90
2019-03-08T06:29:35.235Z,22.90
2019-03-08T06:32:04.784Z,22.60
2019-03-08T06:37:01.725Z,20.80
2019-03-08T06:39:30.288Z,21.50
2019-03-08T06:41:58.855Z,21.60
2019-03-08T06:44:27.460Z,21.00
2019-03-08T06:46:56.517Z,20.80
2019-03-08T06:49:25.088Z,20.80
2019-03-08T06:51:53.618Z,20.00
2019-03-08T06:54:22.189Z,19.40
2019-03-08T06:56:50.759Z,18.60
2019-03-08T06:59:23.767Z,18.60
2019-03-08T07:01:52.412Z,18.20
2019-03-08T07:04:20.998Z,18.30
2019-03-08T07:06:49.666Z,17.90
2019-03-08T07:09:18.228Z,18.60
2019-03-08T07:11:46.802Z,17.80
2019-03-08T07:14:15.397Z,17.80
2019-03-08T07:16:43.966Z,18.20
2019-03-08T07:19:12.614Z,18.10
2019-03-08T07:21:42.858Z,17.60
2019-03-08T07:27:01.187Z,18.20
2019-03-08T07:29:40.028Z,18.40
2019-03-08T07:32:17.523Z,18.10
2019-03-08T07:34:50.717Z,17.60
2019-03-08T07:37:23.955Z,17.60
2019-03-08T07:40:08.915Z,17.70
2019-03-08T07:42:57.242Z,16.80
2019-03-08T07:45:27.465Z,17.10
2019-03-08T07:50:31.152Z,17.50
2019-03-08T07:53:07.659Z,17.60
2019-03-08T07:55:40.593Z,17.70
2019-03-08T07:58:27.064Z,17.90
2019-03-08T08:01:00.034Z,17.60
2019-03-08T08:06:00.162Z,17.90
2019-03-08T08:11:14.019Z,18.30
2019-03-08T08:13:49.724Z,18.00
2019-03-08T08:16:22.710Z,18.00
2019-03-08T08:18:58.998Z,18.00
2019-03-08T08:21:47.766Z,17.80
2019-03-08T08:24:33.003Z,18.40
2019-03-08T08:27:07.117Z,18.00
2019-03-08T08:29:53.733Z,18.40
2019-03-08T08:32:42.079Z,18.30
2019-03-08T08:38:00.619Z,17.20
2019-03-08T08:40:36.714Z,17.60
2019-03-08T08:43:25.170Z,17.50
2019-03-08T08:45:55.418Z,17.50
2019-03-08T08:48:42.043Z,17.30
2019-03-08T08:59:00.709Z,17.80
2019-03-08T09:04:12.390Z,17.30
2019-03-08T09:14:25.985Z,18.50
2019-03-08T10:20:21.736Z,18.80
2019-03-08T10:30:40.764Z,18.40
2019-03-08T10:40:56.313Z,18.20
2019-03-08T10:43:26.456Z,18.20
2019-03-08T10:46:15.747Z,19.00
2019-03-08T10:51:38.063Z,17.80
2019-03-08T10:54:24.337Z,17.60
2019-03-08T11:02:06.031Z,17.70
2019-03-08T11:04:36.255Z,17.80
2019-03-08T11:07:09.635Z,17.30
2019-03-08T11:09:39.897Z,17.80
2019-03-08T11:12:10.107Z,18.00
2019-03-08T11:14:43.199Z,17.60
2019-03-08T11:17:13.358Z,17.60
2019-03-08T11:19:43.512Z,17.10
2019-03-08T11:22:14.239Z,18.00
2019-03-08T11:27:30.588Z,17.40
2019-03-08T11:30:01.208Z,17.00
2019-03-08T11:45:30.942Z,18.60
2019-03-08T11:48:03.943Z,18.70
2019-03-08T11:50:40.196Z,18.70
2019-03-08T11:53:19.635Z,19.00
2019-03-08T11:55:55.629Z,19.40
2019-03-08T11:58:44.027Z,19.40
2019-03-08T12:01:20.325Z,19.50
2019-03-08T12:04:06.858Z,19.20
2019-03-08T12:06:46.045Z,18.50
2019-03-08T12:09:28.341Z,18.50
2019-03-08T12:11:58.517Z,19.60
2019-03-08T12:17:07.495Z,18.30
2019-03-08T12:19:37.745Z,17.80
2019-03-08T12:24:40.905Z,18.10
2019-03-08T12:27:27.498Z,18.50
2019-03-08T12:32:30.405Z,17.60
2019-03-08T12:35:01.037Z,17.90
2019-03-08T12:37:31.302Z,17.50
2019-03-08T12:40:07.330Z,17.50
2019-03-08T12:42:43.281Z,17.90
2019-03-08T12:45:19.463Z,17.60
2019-03-08T12:47:49.730Z,17.20
2019-03-08T12:50:19.879Z,16.30
2019-03-08T12:52:56.394Z,16.50
2019-03-08T12:55:26.542Z,17.00
2019-03-08T12:57:56.992Z,17.10
2019-03-08T13:00:29.795Z,17.20
2019-03-08T13:03:16.575Z,17.80
2019-03-08T13:10:51.430Z,17.80
2019-03-08T13:13:20.031Z,17.90
2019-03-08T13:18:17.112Z,18.10
2019-03-08T13:20:45.912Z,18.50
2019-03-08T13:23:14.494Z,18.10
2019-03-08T13:25:46.096Z,17.40
2019-03-08T13:28:14.764Z,18.20
2019-03-08T13:30:43.336Z,18.80
2019-03-08T13:38:08.814Z,18.40
2019-03-08T13:43:05.898Z,18.20
2019-03-08T13:45:34.914Z,17.90
2019-03-08T13:48:03.488Z,17.10
2019-03-08T13:50:32.371Z,17.60
2019-03-08T13:55:30.211Z,16.80
2019-03-08T14:02:56.925Z,17.70
2019-03-08T14:05:25.538Z,17.70
2019-03-08T14:07:54.122Z,17.30
2019-03-08T14:15:19.799Z,19.60
2019-03-08T14:17:48.388Z,19.40
2019-03-08T14:22:52.331Z,19.20
2019-03-08T14:27:49.182Z,19.70
2019-03-08T14:30:21.982Z,20.30
2019-03-08T14:35:19.342Z,20.10
2019-03-08T14:37:47.976Z,19.80
2019-03-08T14:45:40.559Z,20.60
2019-03-08T14:48:09.592Z,20.10
2019-03-08T14:50:38.089Z,19.30
2019-03-08T14:53:06.700Z,19.30
2019-03-08T14:55:35.719Z,20.00
2019-03-08T14:58:04.288Z,20.10
2019-03-08T15:00:32.892Z,20.20
2019-03-08T15:07:58.261Z,19.70
2019-03-08T15:10:26.770Z,19.90
2019-03-08T15:12:55.467Z,20.40
2019-03-08T15:15:24.078Z,20.60
2019-03-08T15:17:53.634Z,20.80
2019-03-08T15:20:22.843Z,20.90
2019-03-08T15:22:51.452Z,20.30
2019-03-08T15:25:20.031Z,20.10
2019-03-08T15:27:48.533Z,19.80
2019-03-08T15:30:19.004Z,20.20
2019-03-08T15:32:47.496Z,19.40
2019-03-08T15:35:17.072Z,19.80
2019-03-08T15:37:46.033Z,19.20
2019-03-08T15:40:24.459Z,19.60
2019-03-08T15:42:53.071Z,19.90
2019-03-08T15:47:50.361Z,19.50
2019-03-08T15:50:22.282Z,19.80
2019-03-08T15:52:51.527Z,19.60
2019-03-08T16:07:45.115Z,20.30
2019-03-08T16:10:19.259Z,20.50
2019-03-08T16:12:48.028Z,21.00
2019-03-08T16:15:16.674Z,21.00
2019-03-08T16:17:45.253Z,21.00
2019-03-08T16:20:18.742Z,20.70
2019-03-08T16:22:47.393Z,20.80
2019-03-08T16:25:16.454Z,20.90
2019-03-08T16:30:35.800Z,21.30
2019-03-08T16:33:09.171Z,21.60
2019-03-08T16:38:27.101Z,22.10
2019-03-08T16:40:57.294Z,21.90
2019-03-08T16:43:45.781Z,21.40
2019-03-08T16:49:01.777Z,20.40
2019-03-08T16:51:35.936Z,20.20
2019-03-08T16:54:22.438Z,20.00
2019-03-08T16:59:22.562Z,20.20
2019-03-08T17:01:55.779Z,20.60
2019-03-08T17:14:43.935Z,20.70
2019-03-08T17:22:52.075Z,20.70
2019-03-08T17:25:31.274Z,20.40
2019-03-08T17:30:49.779Z,21.30
2019-03-08T17:33:20.035Z,20.40
2019-03-08T17:49:16.961Z,21.00
2019-03-08T17:51:53.115Z,21.00
2019-03-08T17:54:39.722Z,21.00
2019-03-08T17:57:09.934Z,21.20
2019-03-08T18:02:28.378Z,20.80
2019-03-08T18:04:58.570Z,21.50
2019-03-08T18:07:28.720Z,21.10
2019-03-08T18:10:08.295Z,21.50
2019-03-08T18:12:50.640Z,20.90
2019-03-08T18:17:59.066Z,20.40
2019-03-08T18:20:32.297Z,20.00
2019-03-08T18:23:05.357Z,19.90
2019-03-08T18:25:35.523Z,21.20
2019-03-08T18:33:22.925Z,20.20
2019-03-08T18:35:53.140Z,19.20
2019-03-08T18:41:17.965Z,18.90
2019-03-08T18:43:48.215Z,18.30
2019-03-08T18:46:21.077Z,18.10
2019-03-08T18:54:19.767Z,18.10
2019-03-08T18:56:50.035Z,17.50
2019-03-08T18:59:26.200Z,17.50
2019-03-08T19:01:59.153Z,18.50
2019-03-08T19:04:32.203Z,17.90
2019-03-08T19:09:38.451Z,18.00
2019-03-08T19:12:11.810Z,18.00
2019-03-08T19:14:57.084Z,18.50
2019-03-08T19:22:46.099Z,18.70
2019-03-08T19:27:55.742Z,19.70
2019-03-08T19:30:35.132Z,19.90
2019-03-08T19:33:05.730Z,20.10
2019-03-08T19:40:41.508Z,19.60
2019-03-08T19:43:28.215Z,19.60
2019-03-08T19:45:58.439Z,19.10
2019-03-08T19:48:41.722Z,19.40
2019-03-08T19:53:48.108Z,17.80
2019-03-08T19:56:18.372Z,17.20
2019-03-08T20:01:21.318Z,17.40
2019-03-08T20:04:06.856Z,16.20
2019-03-08T20:06:40.073Z,16.30
2019-03-08T20:09:22.037Z,16.70
2019-03-08T20:11:52.414Z,16.50
2019-03-08T20:19:34.490Z,16.00
2019-03-08T20:27:09.581Z,16.70
2019-03-08T20:29:58.535Z,16.10
2019-03-08T20:35:01.400Z,16.30
2019-03-08T20:37:38.205Z,16.30
2019-03-08T20:45:39.856Z,16.60
2019-03-08T20:50:39.697Z,17.70
2019-03-08T20:53:08.264Z,17.40
2019-03-08T20:58:05.289Z,17.20
2019-03-08T21:03:02.210Z,17.40
2019-03-08T21:10:27.808Z,16.50
2019-03-08T21:12:56.446Z,16.80
2019-03-08T21:15:25.833Z,17.30
2019-03-08T21:17:54.670Z,17.20
2019-03-08T21:22:51.631Z,16.70
2019-03-08T21:27:48.588Z,16.60
2019-03-08T21:30:20.993Z,16.60
2019-03-08T21:32:49.558Z,16.80
2019-03-08T21:35:18.252Z,16.70
2019-03-08T21:47:46.012Z,17.90
2019-03-08T21:52:47.429Z,19.10
2019-03-08T21:57:44.861Z,19.70
2019-03-08T22:00:19.307Z,20.50
2019-03-08T22:02:47.886Z,20.70
2019-03-08T22:05:18.172Z,20.90
2019-03-08T22:10:34.929Z,21.10
2019-03-08T22:13:03.580Z,20.60
2019-03-08T22:15:32.082Z,20.10
2019-03-08T22:18:00.710Z,19.90
2019-03-08T22:20:29.223Z,20.20
2019-03-08T22:22:57.879Z,20.20
2019-03-08T22:25:26.496Z,19.50
2019-03-08T22:30:23.388Z,19.40
2019-03-08T22:32:51.936Z,19.40
2019-03-08T22:35:20.438Z,20.00
2019-03-08T22:37:49.454Z,19.40
2019-03-08T22:40:19.709Z,19.30
2019-03-08T22:42:48.359Z,18.90
2019-03-08T22:45:17.286Z,19.00
2019-03-08T22:50:15.134Z,17.30
2019-03-08T22:55:15.159Z,18.50
2019-03-08T22:57:43.806Z,18.70
2019-03-08T23:00:23.024Z,19.30
2019-03-08T23:02:51.879Z,19.50
2019-03-08T23:05:20.450Z,20.40
2019-03-08T23:07:49.074Z,20.40
2019-03-08T23:10:17.660Z,20.70
2019-03-08T23:12:46.308Z,20.90
2019-03-08T23:15:15.000Z,20.90
2019-03-08T23:20:11.857Z,20.40
2019-03-08T23:22:40.899Z,20.40
2019-03-08T23:27:42.336Z,19.10
2019-03-08T23:30:12.604Z,19.40
2019-03-08T23:35:12.238Z,19.60
2019-03-08T23:37:40.854Z,19.50
2019-03-08T23:40:09.821Z,19.40
2019-03-08T23:42:38.473Z,20.10
2019-03-08T23:47:36.632Z,19.40
2019-03-08T23:50:07.509Z,19.80
2019-03-08T23:55:06.608Z,19.20
